sensor_id;sensor_type;location;lat;lon;timestamp;temperature;humidity
45837;DHT22;31548;51.420;-0.040;2024-01-30T00:00:14;11.70;99.90
45837;DHT22;31548;51.420;-0.040;2024-01-30T00:02:41;11.80;99.90
45837;DHT22;31548;51.420;-0.040;2024-01-30T00:05:10;11.80;99.90
45837;DHT22;31548;51.420;-0.040;2024-01-30T00:07:37;11.80;99.90
45837;DHT22;31548;51.420;-0.040;2024-01-30T00:10:05;11.80;99.90
45837;DHT22;31548;51.420;-0.040;2024-01-30T00:12:33;11.80;99.90
45837;DHT22;31548;51.420;-0.040;2024-01-30T00:15:01;11.90;99.90
45837;DHT22;31548;51.420;-0.040;2024-01-30T00:17:28;12.00;99.90
45837;DHT22;31548;51.420;-0.040;2024-01-30T00:19:56;11.90;99.90
45837;DHT22;31548;51.420;-0.040;2024-01-30T00:22:23;12.00;99.90
45837;DHT22;31548;51.420;-0.040;2024-01-30T00:24:51;12.00;99.90
45837;DHT22;31548;51.420;-0.040;2024-01-30T00:27:18;12.00;99.90
45837;DHT22;31548;51.420;-0.040;2024-01-30T00:29:45;12.00;99.90
45837;DHT22;31548;51.420;-0.040;2024-01-30T00:32:13;12.00;99.90
45837;DHT22;31548;51.420;-0.040;2024-01-30T00:34:41;12.00;99.90
45837;DHT22;31548;51.420;-0.040;2024-01-30T00:37:09;12.00;99.90
45837;DHT22;31548;51.420;-0.040;2024-01-30T00:39:36;12.10;99.90
45837;DHT22;31548;51.420;-0.040;2024-01-30T00:42:04;12.10;99.90
45837;DHT22;31548;51.420;-0.040;2024-01-30T00:44:35;12.10;99.90
45837;DHT22;31548;51.420;-0.040;2024-01-30T00:47:05;12.10;99.90
45837;DHT22;31548;51.420;-0.040;2024-01-30T00:49:32;12.10;99.90
45837;DHT22;31548;51.420;-0.040;2024-01-30T00:52:00;12.10;99.90
45837;DHT22;31548;51.420;-0.040;2024-01-30T00:54:28;12.20;99.90
45837;DHT22;31548;51.420;-0.040;2024-01-30T00:56:55;12.20;99.90
45837;DHT22;31548;51.420;-0.040;2024-01-30T00:59:24;12.20;99.90
45837;DHT22;31548;51.420;-0.040;2024-01-30T01:01:51;12.20;99.90
45837;DHT22;31548;51.420;-0.040;2024-01-30T01:04:19;12.10;99.90
45837;DHT22;31548;51.420;-0.040;2024-01-30T01:06:48;12.10;99.90
45837;DHT22;31548;51.420;-0.040;2024-01-30T01:09:16;12.10;99.90
45837;DHT22;31548;51.420;-0.040;2024-01-30T01:11:43;12.10;99.90
45837;DHT22;31548;51.420;-0.040;2024-01-30T01:14:11;12.10;99.90
45837;DHT22;31548;51.420;-0.040;2024-01-30T01:16:38;12.10;99.90
45837;DHT22;31548;51.420;-0.040;2024-01-30T01:19:05;12.10;99.90
45837;DHT22;31548;51.420;-0.040;2024-01-30T01:21:33;12.10;99.90
45837;DHT22;31548;51.420;-0.040;2024-01-30T01:24:00;12.00;99.90
45837;DHT22;31548;51.420;-0.040;2024-01-30T01:26:28;12.00;99.90
45837;DHT22;31548;51.420;-0.040;2024-01-30T01:28:55;12.00;99.90
45837;DHT22;31548;51.420;-0.040;2024-01-30T01:31:23;12.00;99.90
45837;DHT22;31548;51.420;-0.040;2024-01-30T01:33:53;12.00;99.90
45837;DHT22;31548;51.420;-0.040;2024-01-30T01:36:20;11.90;99.90
45837;DHT22;31548;51.420;-0.040;2024-01-30T01:38:48;11.90;99.90
45837;DHT22;31548;51.420;-0.040;2024-01-30T01:41:15;11.80;99.90
45837;DHT22;31548;51.420;-0.040;2024-01-30T01:43:43;11.80;99.90
45837;DHT22;31548;51.420;-0.040;2024-01-30T01:46:11;11.80;99.90
45837;DHT22;31548;51.420;-0.040;2024-01-30T01:48:38;11.70;99.90
45837;DHT22;31548;51.420;-0.040;2024-01-30T01:51:07;11.60;99.90
45837;DHT22;31548;51.420;-0.040;2024-01-30T01:53:36;11.70;99.90
45837;DHT22;31548;51.420;-0.040;2024-01-30T01:56:03;11.60;99.90
45837;DHT22;31548;51.420;-0.040;2024-01-30T01:58:32;11.60;99.90
45837;DHT22;31548;51.420;-0.040;2024-01-30T02:01:00;11.50;99.90
45837;DHT22;31548;51.420;-0.040;2024-01-30T02:03:28;11.60;99.90
45837;DHT22;31548;51.420;-0.040;2024-01-30T02:05:56;11.50;99.90
45837;DHT22;31548;51.420;-0.040;2024-01-30T02:08:24;11.50;99.90
45837;DHT22;31548;51.420;-0.040;2024-01-30T02:10:52;11.50;99.90
45837;DHT22;31548;51.420;-0.040;2024-01-30T02:13:21;11.50;99.90
45837;DHT22;31548;51.420;-0.040;2024-01-30T02:15:50;11.40;99.90
45837;DHT22;31548;51.420;-0.040;2024-01-30T02:18:20;11.30;99.90
45837;DHT22;31548;51.420;-0.040;2024-01-30T02:21:07;11.30;99.90
45837;DHT22;31548;51.420;-0.040;2024-01-30T02:23:35;11.30;99.90
45837;DHT22;31548;51.420;-0.040;2024-01-30T02:26:04;11.20;99.90
45837;DHT22;31548;51.420;-0.040;2024-01-30T02:28:31;11.20;99.90
45837;DHT22;31548;51.420;-0.040;2024-01-30T02:30:59;11.10;99.90
45837;DHT22;31548;51.420;-0.040;2024-01-30T02:33:26;11.00;99.90
45837;DHT22;31548;51.420;-0.040;2024-01-30T02:35:53;11.00;99.90
45837;DHT22;31548;51.420;-0.040;2024-01-30T02:38:21;11.00;99.90
45837;DHT22;31548;51.420;-0.040;2024-01-30T02:40:48;10.90;99.90
45837;DHT22;31548;51.420;-0.040;2024-01-30T02:43:16;10.90;99.90
45837;DHT22;31548;51.420;-0.040;2024-01-30T02:45:44;10.90;99.90
45837;DHT22;31548;51.420;-0.040;2024-01-30T02:48:11;10.80;99.90
45837;DHT22;31548;51.420;-0.040;2024-01-30T02:50:39;10.80;99.90
45837;DHT22;31548;51.420;-0.040;2024-01-30T02:53:06;10.80;99.90
45837;DHT22;31548;51.420;-0.040;2024-01-30T02:55:34;10.80;99.90
45837;DHT22;31548;51.420;-0.040;2024-01-30T02:58:02;10.80;99.90
45837;DHT22;31548;51.420;-0.040;2024-01-30T03:00:29;10.70;99.90
45837;DHT22;31548;51.420;-0.040;2024-01-30T03:02:57;10.80;99.90
45837;DHT22;31548;51.420;-0.040;2024-01-30T03:05:24;10.70;99.90
45837;DHT22;31548;51.420;-0.040;2024-01-30T03:07:52;10.70;99.90
45837;DHT22;31548;51.420;-0.040;2024-01-30T03:10:19;10.60;99.90
45837;DHT22;31548;51.420;-0.040;2024-01-30T03:12:47;10.60;99.90
45837;DHT22;31548;51.420;-0.040;2024-01-30T03:15:14;10.70;99.90
45837;DHT22;31548;51.420;-0.040;2024-01-30T03:17:42;10.60;99.90
45837;DHT22;31548;51.420;-0.040;2024-01-30T03:20:10;10.60;99.90
45837;DHT22;31548;51.420;-0.040;2024-01-30T03:22:37;10.60;99.90
45837;DHT22;31548;51.420;-0.040;2024-01-30T03:25:05;10.60;99.90
45837;DHT22;31548;51.420;-0.040;2024-01-30T03:27:33;10.60;99.90
45837;DHT22;31548;51.420;-0.040;2024-01-30T03:30:00;10.60;99.90
45837;DHT22;31548;51.420;-0.040;2024-01-30T03:32:28;10.50;99.90
45837;DHT22;31548;51.420;-0.040;2024-01-30T03:34:55;10.50;99.90
45837;DHT22;31548;51.420;-0.040;2024-01-30T03:37:23;10.50;99.90
45837;DHT22;31548;51.420;-0.040;2024-01-30T03:39:51;10.50;99.90
45837;DHT22;31548;51.420;-0.040;2024-01-30T03:42:19;10.40;99.90
45837;DHT22;31548;51.420;-0.040;2024-01-30T03:44:46;10.40;99.90
45837;DHT22;31548;51.420;-0.040;2024-01-30T03:47:14;10.40;99.90
45837;DHT22;31548;51.420;-0.040;2024-01-30T03:49:41;10.40;99.90
45837;DHT22;31548;51.420;-0.040;2024-01-30T03:52:09;10.40;99.90
45837;DHT22;31548;51.420;-0.040;2024-01-30T03:54:36;10.30;99.90
45837;DHT22;31548;51.420;-0.040;2024-01-30T03:57:04;10.30;99.90
45837;DHT22;31548;51.420;-0.040;2024-01-30T03:59:32;10.20;99.90
45837;DHT22;31548;51.420;-0.040;2024-01-30T04:01:59;10.20;99.90
45837;DHT22;31548;51.420;-0.040;2024-01-30T04:04:27;10.20;99.90
45837;DHT22;31548;51.420;-0.040;2024-01-30T04:06:55;10.20;99.90
45837;DHT22;31548;51.420;-0.040;2024-01-30T04:09:22;10.10;99.90
45837;DHT22;31548;51.420;-0.040;2024-01-30T04:11:50;10.10;99.90
45837;DHT22;31548;51.420;-0.040;2024-01-30T04:14:18;10.10;99.90
45837;DHT22;31548;51.420;-0.040;2024-01-30T04:16:45;10.10;99.90
45837;DHT22;31548;51.420;-0.040;2024-01-30T04:19:13;10.10;99.90
45837;DHT22;31548;51.420;-0.040;2024-01-30T04:21:40;10.10;99.90
45837;DHT22;31548;51.420;-0.040;2024-01-30T04:24:08;10.00;99.90
45837;DHT22;31548;51.420;-0.040;2024-01-30T04:26:35;10.10;99.90
45837;DHT22;31548;51.420;-0.040;2024-01-30T04:29:04;10.00;99.90
45837;DHT22;31548;51.420;-0.040;2024-01-30T04:31:31;10.00;99.90
45837;DHT22;31548;51.420;-0.040;2024-01-30T04:33:59;10.00;99.90
45837;DHT22;31548;51.420;-0.040;2024-01-30T04:36:26;10.00;99.90
45837;DHT22;31548;51.420;-0.040;2024-01-30T04:38:54;10.00;99.90
45837;DHT22;31548;51.420;-0.040;2024-01-30T04:41:21;10.00;99.90
45837;DHT22;31548;51.420;-0.040;2024-01-30T04:43:49;9.90;99.90
45837;DHT22;31548;51.420;-0.040;2024-01-30T04:46:16;10.00;99.90
45837;DHT22;31548;51.420;-0.040;2024-01-30T04:48:44;10.00;99.90
45837;DHT22;31548;51.420;-0.040;2024-01-30T04:51:12;10.00;99.90
45837;DHT22;31548;51.420;-0.040;2024-01-30T04:53:39;10.00;99.90
45837;DHT22;31548;51.420;-0.040;2024-01-30T04:56:07;10.00;99.90
45837;DHT22;31548;51.420;-0.040;2024-01-30T04:58:35;10.00;99.90
45837;DHT22;31548;51.420;-0.040;2024-01-30T05:01:03;10.00;99.90
45837;DHT22;31548;51.420;-0.040;2024-01-30T05:03:33;10.00;99.90
45837;DHT22;31548;51.420;-0.040;2024-01-30T05:06:01;10.00;99.90
45837;DHT22;31548;51.420;-0.040;2024-01-30T05:08:29;10.10;99.90
45837;DHT22;31548;51.420;-0.040;2024-01-30T05:10:56;10.10;99.90
45837;DHT22;31548;51.420;-0.040;2024-01-30T05:13:26;10.10;99.90
45837;DHT22;31548;51.420;-0.040;2024-01-30T05:15:54;10.10;99.90
45837;DHT22;31548;51.420;-0.040;2024-01-30T05:18:22;10.10;99.90
45837;DHT22;31548;51.420;-0.040;2024-01-30T05:20:52;10.00;99.90
45837;DHT22;31548;51.420;-0.040;2024-01-30T05:23:20;10.00;99.90
45837;DHT22;31548;51.420;-0.040;2024-01-30T05:25:47;10.00;99.90
45837;DHT22;31548;51.420;-0.040;2024-01-30T05:28:14;10.10;99.90
45837;DHT22;31548;51.420;-0.040;2024-01-30T05:30:42;10.10;99.90
45837;DHT22;31548;51.420;-0.040;2024-01-30T05:33:09;10.00;99.90
45837;DHT22;31548;51.420;-0.040;2024-01-30T05:35:39;10.00;99.90
45837;DHT22;31548;51.420;-0.040;2024-01-30T05:38:07;10.00;99.90
45837;DHT22;31548;51.420;-0.040;2024-01-30T05:40:34;10.00;99.90
45837;DHT22;31548;51.420;-0.040;2024-01-30T05:43:02;10.00;99.90
45837;DHT22;31548;51.420;-0.040;2024-01-30T05:45:30;10.00;99.90
45837;DHT22;31548;51.420;-0.040;2024-01-30T05:47:57;9.90;99.90
45837;DHT22;31548;51.420;-0.040;2024-01-30T05:50:25;9.90;99.90
45837;DHT22;31548;51.420;-0.040;2024-01-30T05:52:53;9.90;99.90
45837;DHT22;31548;51.420;-0.040;2024-01-30T05:55:21;9.80;99.90
45837;DHT22;31548;51.420;-0.040;2024-01-30T05:57:48;9.80;99.90
45837;DHT22;31548;51.420;-0.040;2024-01-30T06:00:16;9.80;99.90
45837;DHT22;31548;51.420;-0.040;2024-01-30T06:02:44;9.70;99.90
45837;DHT22;31548;51.420;-0.040;2024-01-30T06:05:11;9.60;99.90
45837;DHT22;31548;51.420;-0.040;2024-01-30T06:07:39;9.70;99.90
45837;DHT22;31548;51.420;-0.040;2024-01-30T06:10:07;9.50;99.90
45837;DHT22;31548;51.420;-0.040;2024-01-30T06:12:36;9.50;99.90
45837;DHT22;31548;51.420;-0.040;2024-01-30T06:15:04;9.30;99.90
45837;DHT22;31548;51.420;-0.040;2024-01-30T06:17:32;9.20;99.90
45837;DHT22;31548;51.420;-0.040;2024-01-30T06:20:00;9.20;99.90
45837;DHT22;31548;51.420;-0.040;2024-01-30T06:22:28;9.10;99.90
45837;DHT22;31548;51.420;-0.040;2024-01-30T06:24:56;9.00;99.90
45837;DHT22;31548;51.420;-0.040;2024-01-30T06:27:23;9.00;99.90
45837;DHT22;31548;51.420;-0.040;2024-01-30T06:29:51;9.00;99.90
45837;DHT22;31548;51.420;-0.040;2024-01-30T06:32:18;8.80;99.90
45837;DHT22;31548;51.420;-0.040;2024-01-30T06:34:46;8.80;99.90
45837;DHT22;31548;51.420;-0.040;2024-01-30T06:37:13;8.70;99.90
45837;DHT22;31548;51.420;-0.040;2024-01-30T06:39:41;8.70;99.90
45837;DHT22;31548;51.420;-0.040;2024-01-30T06:42:08;8.70;99.90
45837;DHT22;31548;51.420;-0.040;2024-01-30T06:44:36;8.60;99.90
45837;DHT22;31548;51.420;-0.040;2024-01-30T06:47:04;8.60;99.90
45837;DHT22;31548;51.420;-0.040;2024-01-30T06:49:31;8.50;99.90
45837;DHT22;31548;51.420;-0.040;2024-01-30T06:51:59;8.50;99.90
45837;DHT22;31548;51.420;-0.040;2024-01-30T06:54:27;8.50;99.90
45837;DHT22;31548;51.420;-0.040;2024-01-30T06:56:54;8.60;99.90
45837;DHT22;31548;51.420;-0.040;2024-01-30T06:59:22;8.60;99.90
45837;DHT22;31548;51.420;-0.040;2024-01-30T07:01:50;8.60;99.90
45837;DHT22;31548;51.420;-0.040;2024-01-30T07:04:17;8.60;99.90
45837;DHT22;31548;51.420;-0.040;2024-01-30T07:06:46;8.50;99.90
45837;DHT22;31548;51.420;-0.040;2024-01-30T07:09:14;8.60;99.90
45837;DHT22;31548;51.420;-0.040;2024-01-30T07:11:41;8.60;99.90
45837;DHT22;31548;51.420;-0.040;2024-01-30T07:14:09;8.60;99.90
45837;DHT22;31548;51.420;-0.040;2024-01-30T07:16:37;8.60;99.90
45837;DHT22;31548;51.420;-0.040;2024-01-30T07:19:04;8.60;99.90
45837;DHT22;31548;51.420;-0.040;2024-01-30T07:21:32;8.60;99.90
45837;DHT22;31548;51.420;-0.040;2024-01-30T07:23:59;8.60;99.90
45837;DHT22;31548;51.420;-0.040;2024-01-30T07:26:27;8.60;99.90
45837;DHT22;31548;51.420;-0.040;2024-01-30T07:29:01;8.60;99.90
45837;DHT22;31548;51.420;-0.040;2024-01-30T07:31:29;8.60;99.90
45837;DHT22;31548;51.420;-0.040;2024-01-30T07:34:05;8.60;99.90
45837;DHT22;31548;51.420;-0.040;2024-01-30T07:36:33;8.60;99.90
45837;DHT22;31548;51.420;-0.040;2024-01-30T07:39:00;8.60;99.90
45837;DHT22;31548;51.420;-0.040;2024-01-30T07:41:28;8.70;99.90
45837;DHT22;31548;51.420;-0.040;2024-01-30T07:43:56;8.60;99.90
45837;DHT22;31548;51.420;-0.040;2024-01-30T07:46:23;8.60;99.90
45837;DHT22;31548;51.420;-0.040;2024-01-30T07:48:51;8.60;99.90
45837;DHT22;31548;51.420;-0.040;2024-01-30T07:51:21;8.60;99.90
45837;DHT22;31548;51.420;-0.040;2024-01-30T07:53:49;8.60;99.90
45837;DHT22;31548;51.420;-0.040;2024-01-30T07:56:17;8.60;99.90
45837;DHT22;31548;51.420;-0.040;2024-01-30T07:58:44;8.60;99.90
45837;DHT22;31548;51.420;-0.040;2024-01-30T08:01:12;8.70;99.90
45837;DHT22;31548;51.420;-0.040;2024-01-30T08:03:40;8.70;99.90
45837;DHT22;31548;51.420;-0.040;2024-01-30T08:06:09;8.60;99.90
45837;DHT22;31548;51.420;-0.040;2024-01-30T08:08:37;8.60;99.90
45837;DHT22;31548;51.420;-0.040;2024-01-30T08:11:05;8.60;99.90
45837;DHT22;31548;51.420;-0.040;2024-01-30T08:13:33;8.70;99.90
45837;DHT22;31548;51.420;-0.040;2024-01-30T08:16:00;8.60;99.90
45837;DHT22;31548;51.420;-0.040;2024-01-30T08:18:28;8.70;99.90
45837;DHT22;31548;51.420;-0.040;2024-01-30T08:20:56;8.60;99.90
45837;DHT22;31548;51.420;-0.040;2024-01-30T08:23:23;8.60;99.90
45837;DHT22;31548;51.420;-0.040;2024-01-30T08:25:51;8.70;99.90
45837;DHT22;31548;51.420;-0.040;2024-01-30T08:28:18;8.70;99.90
45837;DHT22;31548;51.420;-0.040;2024-01-30T08:30:47;8.60;99.90
45837;DHT22;31548;51.420;-0.040;2024-01-30T08:33:15;8.70;99.90
45837;DHT22;31548;51.420;-0.040;2024-01-30T08:35:43;8.70;99.90
45837;DHT22;31548;51.420;-0.040;2024-01-30T08:38:10;8.70;99.90
45837;DHT22;31548;51.420;-0.040;2024-01-30T08:40:39;8.70;99.90
45837;DHT22;31548;51.420;-0.040;2024-01-30T08:43:07;8.70;99.90
45837;DHT22;31548;51.420;-0.040;2024-01-30T08:45:37;8.70;99.90
45837;DHT22;31548;51.420;-0.040;2024-01-30T08:48:05;8.70;99.90
45837;DHT22;31548;51.420;-0.040;2024-01-30T08:50:33;8.70;99.90
45837;DHT22;31548;51.420;-0.040;2024-01-30T08:53:01;8.70;99.90
45837;DHT22;31548;51.420;-0.040;2024-01-30T08:55:30;8.70;99.90
45837;DHT22;31548;51.420;-0.040;2024-01-30T08:57:58;8.70;99.90
45837;DHT22;31548;51.420;-0.040;2024-01-30T09:00:26;8.70;99.90
45837;DHT22;31548;51.420;-0.040;2024-01-30T09:02:53;8.70;99.90
45837;DHT22;31548;51.420;-0.040;2024-01-30T09:05:21;8.70;99.90
45837;DHT22;31548;51.420;-0.040;2024-01-30T09:07:49;8.60;99.90
45837;DHT22;31548;51.420;-0.040;2024-01-30T09:10:16;8.60;99.90
45837;DHT22;31548;51.420;-0.040;2024-01-30T09:12:48;8.60;99.90
45837;DHT22;31548;51.420;-0.040;2024-01-30T09:15:17;8.70;99.90
45837;DHT22;31548;51.420;-0.040;2024-01-30T09:17:46;8.60;99.90
45837;DHT22;31548;51.420;-0.040;2024-01-30T09:20:14;8.60;99.90
45837;DHT22;31548;51.420;-0.040;2024-01-30T09:22:42;8.70;99.90
45837;DHT22;31548;51.420;-0.040;2024-01-30T09:25:09;8.60;99.90
45837;DHT22;31548;51.420;-0.040;2024-01-30T09:27:37;8.70;99.90
45837;DHT22;31548;51.420;-0.040;2024-01-30T09:30:05;8.70;99.90
45837;DHT22;31548;51.420;-0.040;2024-01-30T09:32:33;8.60;99.90
45837;DHT22;31548;51.420;-0.040;2024-01-30T09:35:01;8.70;99.90
45837;DHT22;31548;51.420;-0.040;2024-01-30T09:37:28;8.70;99.90
45837;DHT22;31548;51.420;-0.040;2024-01-30T09:39:56;8.70;99.90
45837;DHT22;31548;51.420;-0.040;2024-01-30T09:44:51;8.70;99.90
45837;DHT22;31548;51.420;-0.040;2024-01-30T09:47:20;8.70;99.90
45837;DHT22;31548;51.420;-0.040;2024-01-30T09:49:48;8.80;99.90
45837;DHT22;31548;51.420;-0.040;2024-01-30T09:52:17;8.80;99.90
45837;DHT22;31548;51.420;-0.040;2024-01-30T09:54:45;8.80;99.90
45837;DHT22;31548;51.420;-0.040;2024-01-30T09:57:15;8.80;99.90
45837;DHT22;31548;51.420;-0.040;2024-01-30T09:59:42;8.80;99.90
45837;DHT22;31548;51.420;-0.040;2024-01-30T10:02:11;8.80;99.90
45837;DHT22;31548;51.420;-0.040;2024-01-30T10:04:39;8.80;99.90
45837;DHT22;31548;51.420;-0.040;2024-01-30T10:07:07;8.90;99.90
45837;DHT22;31548;51.420;-0.040;2024-01-30T10:09:37;8.80;99.90
45837;DHT22;31548;51.420;-0.040;2024-01-30T10:12:05;8.90;99.90
45837;DHT22;31548;51.420;-0.040;2024-01-30T10:14:33;8.90;99.90
45837;DHT22;31548;51.420;-0.040;2024-01-30T10:17:01;8.90;99.90
45837;DHT22;31548;51.420;-0.040;2024-01-30T10:19:39;8.90;99.90
45837;DHT22;31548;51.420;-0.040;2024-01-30T10:22:09;8.90;99.90
45837;DHT22;31548;51.420;-0.040;2024-01-30T10:24:37;9.00;99.90
45837;DHT22;31548;51.420;-0.040;2024-01-30T10:27:05;9.00;99.90
45837;DHT22;31548;51.420;-0.040;2024-01-30T10:29:33;9.10;99.90
45837;DHT22;31548;51.420;-0.040;2024-01-30T10:32:02;9.10;99.90
45837;DHT22;31548;51.420;-0.040;2024-01-30T10:34:30;9.10;99.90
45837;DHT22;31548;51.420;-0.040;2024-01-30T10:37:09;9.20;99.90
45837;DHT22;31548;51.420;-0.040;2024-01-30T10:39:45;9.20;99.90
45837;DHT22;31548;51.420;-0.040;2024-01-30T10:42:15;9.20;99.90
45837;DHT22;31548;51.420;-0.040;2024-01-30T10:44:50;9.10;99.90
45837;DHT22;31548;51.420;-0.040;2024-01-30T10:47:28;9.20;99.90
45837;DHT22;31548;51.420;-0.040;2024-01-30T10:49:56;9.10;99.90
45837;DHT22;31548;51.420;-0.040;2024-01-30T10:52:25;9.10;99.90
45837;DHT22;31548;51.420;-0.040;2024-01-30T10:54:55;9.20;99.90
45837;DHT22;31548;51.420;-0.040;2024-01-30T10:57:23;9.20;99.90
45837;DHT22;31548;51.420;-0.040;2024-01-30T10:59:58;9.10;99.90
45837;DHT22;31548;51.420;-0.040;2024-01-30T11:02:26;9.10;99.90
45837;DHT22;31548;51.420;-0.040;2024-01-30T11:04:57;9.10;99.90
45837;DHT22;31548;51.420;-0.040;2024-01-30T11:07:27;9.10;99.90
45837;DHT22;31548;51.420;-0.040;2024-01-30T11:12:31;9.10;99.90
45837;DHT22;31548;51.420;-0.040;2024-01-30T11:15:04;9.10;99.90
45837;DHT22;31548;51.420;-0.040;2024-01-30T11:17:49;9.10;99.90
45837;DHT22;31548;51.420;-0.040;2024-01-30T11:20:30;9.20;99.90
45837;DHT22;31548;51.420;-0.040;2024-01-30T11:23:04;9.20;99.90
45837;DHT22;31548;51.420;-0.040;2024-01-30T11:25:36;9.20;99.90
45837;DHT22;31548;51.420;-0.040;2024-01-30T11:28:16;9.20;99.90
45837;DHT22;31548;51.420;-0.040;2024-01-30T11:30:44;9.10;99.90
45837;DHT22;31548;51.420;-0.040;2024-01-30T11:33:13;9.10;99.90
45837;DHT22;31548;51.420;-0.040;2024-01-30T11:35:42;9.10;99.90
45837;DHT22;31548;51.420;-0.040;2024-01-30T11:38:13;9.10;99.90
45837;DHT22;31548;51.420;-0.040;2024-01-30T11:40:42;9.00;99.90
45837;DHT22;31548;51.420;-0.040;2024-01-30T11:43:11;9.00;99.90
45837;DHT22;31548;51.420;-0.040;2024-01-30T11:45:39;9.00;99.90
45837;DHT22;31548;51.420;-0.040;2024-01-30T11:48:08;9.00;99.90
45837;DHT22;31548;51.420;-0.040;2024-01-30T11:50:39;8.90;99.90
45837;DHT22;31548;51.420;-0.040;2024-01-30T11:53:10;9.00;99.90
45837;DHT22;31548;51.420;-0.040;2024-01-30T11:55:38;8.90;99.90
45837;DHT22;31548;51.420;-0.040;2024-01-30T11:58:06;8.90;99.90
45837;DHT22;31548;51.420;-0.040;2024-01-30T12:00:34;9.00;99.90
45837;DHT22;31548;51.420;-0.040;2024-01-30T12:03:03;9.00;99.90
45837;DHT22;31548;51.420;-0.040;2024-01-30T12:05:31;9.00;99.90
45837;DHT22;31548;51.420;-0.040;2024-01-30T12:07:59;8.90;99.90
45837;DHT22;31548;51.420;-0.040;2024-01-30T12:10:29;8.90;99.90
45837;DHT22;31548;51.420;-0.040;2024-01-30T12:12:57;8.80;99.90
45837;DHT22;31548;51.420;-0.040;2024-01-30T12:15:26;8.80;99.90
45837;DHT22;31548;51.420;-0.040;2024-01-30T12:18:04;8.80;99.90
45837;DHT22;31548;51.420;-0.040;2024-01-30T12:20:32;8.80;99.90
45837;DHT22;31548;51.420;-0.040;2024-01-30T12:23:00;8.80;99.90
45837;DHT22;31548;51.420;-0.040;2024-01-30T12:25:27;8.80;99.90
45837;DHT22;31548;51.420;-0.040;2024-01-30T12:27:55;8.90;99.90
45837;DHT22;31548;51.420;-0.040;2024-01-30T12:30:31;8.90;99.90
45837;DHT22;31548;51.420;-0.040;2024-01-30T12:33:00;8.90;99.90
45837;DHT22;31548;51.420;-0.040;2024-01-30T12:35:29;8.90;99.90
45837;DHT22;31548;51.420;-0.040;2024-01-30T12:37:59;8.80;99.90
45837;DHT22;31548;51.420;-0.040;2024-01-30T12:40:27;8.90;99.90
45837;DHT22;31548;51.420;-0.040;2024-01-30T12:42:56;8.90;99.90
45837;DHT22;31548;51.420;-0.040;2024-01-30T12:45:23;8.80;99.90
45837;DHT22;31548;51.420;-0.040;2024-01-30T12:47:53;8.80;99.90
45837;DHT22;31548;51.420;-0.040;2024-01-30T12:50:31;8.90;99.90
45837;DHT22;31548;51.420;-0.040;2024-01-30T12:52:59;8.80;99.90
45837;DHT22;31548;51.420;-0.040;2024-01-30T12:55:27;8.80;99.90
45837;DHT22;31548;51.420;-0.040;2024-01-30T12:57:56;8.90;99.90
45837;DHT22;31548;51.420;-0.040;2024-01-30T13:00:23;8.80;99.90
45837;DHT22;31548;51.420;-0.040;2024-01-30T13:02:51;8.80;99.90
45837;DHT22;31548;51.420;-0.040;2024-01-30T13:05:18;8.80;99.90
45837;DHT22;31548;51.420;-0.040;2024-01-30T13:07:46;8.70;99.90
45837;DHT22;31548;51.420;-0.040;2024-01-30T13:10:14;8.80;99.90
45837;DHT22;31548;51.420;-0.040;2024-01-30T13:12:41;8.80;99.90
45837;DHT22;31548;51.420;-0.040;2024-01-30T13:15:09;8.80;99.90
45837;DHT22;31548;51.420;-0.040;2024-01-30T13:17:38;8.80;99.90
45837;DHT22;31548;51.420;-0.040;2024-01-30T13:20:06;8.80;99.90
45837;DHT22;31548;51.420;-0.040;2024-01-30T13:22:38;8.80;99.90
45837;DHT22;31548;51.420;-0.040;2024-01-30T13:25:07;8.80;99.90
45837;DHT22;31548;51.420;-0.040;2024-01-30T13:27:36;8.90;99.90
45837;DHT22;31548;51.420;-0.040;2024-01-30T13:30:06;8.90;99.90
45837;DHT22;31548;51.420;-0.040;2024-01-30T13:32:39;8.90;99.90
45837;DHT22;31548;51.420;-0.040;2024-01-30T13:35:08;9.00;99.90
45837;DHT22;31548;51.420;-0.040;2024-01-30T13:37:36;9.10;99.90
45837;DHT22;31548;51.420;-0.040;2024-01-30T13:40:05;9.10;99.90
45837;DHT22;31548;51.420;-0.040;2024-01-30T13:42:41;9.10;99.90
45837;DHT22;31548;51.420;-0.040;2024-01-30T13:45:08;9.10;99.90
45837;DHT22;31548;51.420;-0.040;2024-01-30T13:47:38;9.10;99.90
45837;DHT22;31548;51.420;-0.040;2024-01-30T13:50:06;9.20;99.90
45837;DHT22;31548;51.420;-0.040;2024-01-30T13:52:35;9.10;99.90
45837;DHT22;31548;51.420;-0.040;2024-01-30T13:55:11;9.10;99.90
45837;DHT22;31548;51.420;-0.040;2024-01-30T13:57:39;9.10;99.90
45837;DHT22;31548;51.420;-0.040;2024-01-30T14:00:07;9.00;99.90
45837;DHT22;31548;51.420;-0.040;2024-01-30T14:02:40;9.00;99.90
45837;DHT22;31548;51.420;-0.040;2024-01-30T14:05:08;9.00;99.90
45837;DHT22;31548;51.420;-0.040;2024-01-30T14:07:37;9.10;99.90
45837;DHT22;31548;51.420;-0.040;2024-01-30T14:10:07;9.10;99.90
45837;DHT22;31548;51.420;-0.040;2024-01-30T14:12:39;9.00;99.90
45837;DHT22;31548;51.420;-0.040;2024-01-30T14:15:08;9.00;99.90
45837;DHT22;31548;51.420;-0.040;2024-01-30T14:17:53;9.10;99.90
45837;DHT22;31548;51.420;-0.040;2024-01-30T14:20:21;9.10;99.90
45837;DHT22;31548;51.420;-0.040;2024-01-30T14:22:49;9.10;99.90
45837;DHT22;31548;51.420;-0.040;2024-01-30T14:25:16;9.20;99.90
45837;DHT22;31548;51.420;-0.040;2024-01-30T14:27:44;9.20;99.90
45837;DHT22;31548;51.420;-0.040;2024-01-30T14:30:12;9.20;99.90
45837;DHT22;31548;51.420;-0.040;2024-01-30T14:32:39;9.30;99.90
45837;DHT22;31548;51.420;-0.040;2024-01-30T14:35:08;9.30;99.90
45837;DHT22;31548;51.420;-0.040;2024-01-30T14:37:37;9.30;99.90
45837;DHT22;31548;51.420;-0.040;2024-01-30T14:40:05;9.30;99.90
45837;DHT22;31548;51.420;-0.040;2024-01-30T14:42:36;9.30;99.90
45837;DHT22;31548;51.420;-0.040;2024-01-30T14:45:08;9.20;99.90
45837;DHT22;31548;51.420;-0.040;2024-01-30T14:47:37;9.20;99.90
45837;DHT22;31548;51.420;-0.040;2024-01-30T14:50:08;9.20;99.90
45837;DHT22;31548;51.420;-0.040;2024-01-30T14:52:37;9.20;99.90
45837;DHT22;31548;51.420;-0.040;2024-01-30T14:55:07;9.10;99.90
45837;DHT22;31548;51.420;-0.040;2024-01-30T14:57:36;9.00;99.90
45837;DHT22;31548;51.420;-0.040;2024-01-30T15:00:06;9.00;99.90
45837;DHT22;31548;51.420;-0.040;2024-01-30T15:02:34;9.10;99.90
45837;DHT22;31548;51.420;-0.040;2024-01-30T15:05:03;9.10;99.90
45837;DHT22;31548;51.420;-0.040;2024-01-30T15:07:31;9.00;99.90
45837;DHT22;31548;51.420;-0.040;2024-01-30T15:10:07;9.00;99.90
45837;DHT22;31548;51.420;-0.040;2024-01-30T15:12:36;9.00;99.90
45837;DHT22;31548;51.420;-0.040;2024-01-30T15:15:06;9.00;99.90
45837;DHT22;31548;51.420;-0.040;2024-01-30T15:17:35;9.00;99.90
45837;DHT22;31548;51.420;-0.040;2024-01-30T15:20:03;9.00;99.90
45837;DHT22;31548;51.420;-0.040;2024-01-30T15:22:31;9.00;99.90
45837;DHT22;31548;51.420;-0.040;2024-01-30T15:24:59;9.00;99.90
45837;DHT22;31548;51.420;-0.040;2024-01-30T15:27:27;9.00;99.90
45837;DHT22;31548;51.420;-0.040;2024-01-30T15:29:57;9.00;99.90
45837;DHT22;31548;51.420;-0.040;2024-01-30T15:32:24;9.00;99.90
45837;DHT22;31548;51.420;-0.040;2024-01-30T15:34:52;9.00;99.90
45837;DHT22;31548;51.420;-0.040;2024-01-30T15:37:20;9.00;99.90